Time;durP1;ratioP1;P1;durP2;ratioP2;P2;SDS_P1;SDS_P2;PMS_P1;PMS_P2;Temp;Humidity;BMP_temperature;BMP_pressure;BME280_temperature;BME280_humidity;BME280_pressure;Samples;Min_cycle;Max_cycle;Signal;HPM_P1;HPM_P2
2022/11/20 00:00:40;;;;;;;26.33;17.42;;;-0.50;99.90;;;;;;4995011;28;20408;-74
2022/11/20 00:03:05;;;;;;;25.80;19.55;;;-0.40;99.90;;;;;;5022486;28;20081;-76
2022/11/20 00:05:33;;;;;;;30.52;18.27;;;-0.40;99.90;;;;;;5009355;28;20405;-75
2022/11/20 00:07:58;;;;;;;30.40;18.65;;;-0.50;99.90;;;;;;5009588;28;20412;-76
2022/11/20 00:10:24;;;;;;;26.45;18.88;;;-0.40;99.90;;;;;;4990689;28;20065;-75
2022/11/20 00:12:50;;;;;;;33.03;20.42;;;-0.40;99.90;;;;;;5009589;28;20049;-74
2022/11/20 00:15:15;;;;;;;34.05;22.38;;;-0.50;99.90;;;;;;5010068;28;20489;-76
2022/11/20 00:17:41;;;;;;;28.77;20.48;;;-0.40;99.90;;;;;;5009600;28;20046;-76
2022/11/20 00:20:08;;;;;;;31.65;20.20;;;-0.40;99.90;;;;;;5009516;28;20113;-76
2022/11/20 00:22:33;;;;;;;28.38;22.02;;;-0.40;99.90;;;;;;5009305;28;20034;-75
2022/11/20 00:24:59;;;;;;;32.22;20.77;;;-0.50;99.90;;;;;;5008327;28;20092;-76
2022/11/20 00:27:24;;;;;;;37.55;24.58;;;-0.40;99.90;;;;;;5009160;28;20046;-77
2022/11/20 00:29:50;;;;;;;33.30;22.48;;;-0.40;99.90;;;;;;5017774;28;20485;-77
2022/11/20 00:32:16;;;;;;;31.13;21.02;;;-0.40;99.90;;;;;;5029364;28;20352;-74
2022/11/20 00:34:41;;;;;;;28.90;18.20;;;-0.40;99.90;;;;;;5028764;28;20053;-76
2022/11/20 00:37:07;;;;;;;25.33;17.52;;;-0.20;99.90;;;;;;5029535;28;20046;-74
2022/11/20 00:39:33;;;;;;;24.38;16.10;;;-0.30;99.90;;;;;;5009804;28;20044;-75
2022/11/20 00:41:58;;;;;;;23.95;13.45;;;-0.30;99.90;;;;;;5028636;28;20124;-75
2022/11/20 00:44:24;;;;;;;17.45;11.05;;;-0.40;99.90;;;;;;5028739;28;20044;-75
2022/11/20 00:46:49;;;;;;;17.52;12.23;;;-0.40;99.90;;;;;;5028855;28;20480;-76
2022/11/20 00:49:15;;;;;;;18.52;12.45;;;-0.40;99.90;;;;;;5029463;28;20488;-76
2022/11/20 00:51:41;;;;;;;22.50;12.85;;;-0.40;99.90;;;;;;5028165;28;20045;-76
2022/11/20 00:54:06;;;;;;;20.25;13.63;;;-0.60;99.90;;;;;;5028741;28;20136;-76
2022/11/20 00:56:32;;;;;;;24.50;16.38;;;-0.50;99.90;;;;;;5027964;28;20050;-75
2022/11/20 00:59:00;;;;;;;23.10;15.20;;;-0.50;99.90;;;;;;5025406;28;20034;-74
2022/11/20 01:01:28;;;;;;;22.92;15.75;;;-0.70;99.90;;;;;;5008198;28;20406;-78
2022/11/20 01:03:56;;;;;;;25.55;15.30;;;-0.60;99.90;;;;;;5008512;28;20088;-75
2022/11/20 01:06:24;;;;;;;20.60;14.25;;;-0.60;99.90;;;;;;5008271;28;20045;-74
2022/11/20 01:08:52;;;;;;;20.17;13.23;;;-0.60;99.90;;;;;;5008240;28;20128;-75
2022/11/20 01:11:24;;;;;;;23.85;15.30;;;-0.60;99.90;;;;;;5007128;28;20103;-75
2022/11/20 01:13:51;;;;;;;22.73;13.05;;;-0.70;99.90;;;;;;5008668;28;20562;-75
2022/11/20 01:16:18;;;;;;;23.90;15.35;;;-0.70;99.90;;;;;;5009123;28;20165;-74
2022/11/20 01:18:47;;;;;;;24.73;15.93;;;-0.60;99.90;;;;;;5008981;28;20037;-75
2022/11/20 01:21:15;;;;;;;24.65;15.20;;;-0.70;99.90;;;;;;5008579;28;20053;-75
2022/11/20 01:23:42;;;;;;;20.73;14.23;;;-0.70;99.90;;;;;;5008433;28;20053;-75
2022/11/20 01:26:14;;;;;;;24.55;16.08;;;-0.60;99.90;;;;;;5007265;28;20175;-75
2022/11/20 01:28:41;;;;;;;24.08;15.00;;;-0.40;99.90;;;;;;4990214;28;20057;-76
2022/11/20 01:31:14;;;;;;;19.65;14.02;;;-0.50;99.90;;;;;;4990142;28;20033;-76
2022/11/20 01:33:41;;;;;;;21.52;13.30;;;-0.40;99.90;;;;;;5007894;28;20095;-74
2022/11/20 01:36:08;;;;;;;25.10;13.82;;;-0.50;99.90;;;;;;5008082;28;20121;-75
2022/11/20 01:38:33;;;;;;;20.02;13.93;;;-0.40;99.90;;;;;;4990039;28;20354;-75
2022/11/20 01:40:59;;;;;;;22.45;13.85;;;-0.30;99.90;;;;;;5006515;28;20049;-73
2022/11/20 01:43:26;;;;;;;21.30;14.43;;;-0.30;99.90;;;;;;5007165;28;20408;-74
2022/11/20 01:46:05;;;;;;;26.92;14.73;;;-0.30;99.90;;;;;;5007742;28;20552;-75
2022/11/20 01:49:02;;;;;;;24.38;16.48;;;-0.40;99.90;;;;;;4990455;28;20041;-74
2022/11/20 01:51:33;;;;;;;20.20;12.80;;;-0.40;99.90;;;;;;5007829;28;20038;-75
2022/11/20 01:54:03;;;;;;;19.45;13.25;;;-0.30;99.90;;;;;;5008384;28;20060;-76
2022/11/20 01:56:33;;;;;;;22.63;13.00;;;-0.40;99.90;;;;;;5007414;28;20046;-76
2022/11/20 01:59:01;;;;;;;18.55;13.65;;;-0.30;99.90;;;;;;5012288;28;20117;-76
2022/11/20 02:01:27;;;;;;;19.88;13.07;;;-0.40;99.90;;;;;;5027882;28;20042;-77
2022/11/20 02:03:54;;;;;;;16.90;12.70;;;-0.40;99.90;;;;;;5027394;28;20484;-75
2022/11/20 02:06:24;;;;;;;18.33;12.10;;;-0.30;99.90;;;;;;5026914;28;20046;-75
2022/11/20 02:08:52;;;;;;;20.02;13.02;;;-0.20;99.90;;;;;;5027086;28;20062;-74
2022/11/20 02:11:18;;;;;;;19.63;13.98;;;-0.20;99.90;;;;;;5026404;28;20048;-78
2022/11/20 02:13:45;;;;;;;23.13;14.23;;;-0.10;99.90;;;;;;5027591;28;20045;-74
2022/11/20 02:16:15;;;;;;;19.90;12.68;;;-0.20;99.90;;;;;;5026884;28;20108;-75
2022/11/20 02:18:42;;;;;;;16.63;11.55;;;-0.20;99.90;;;;;;5026984;28;20045;-76
2022/11/20 02:21:29;;;;;;;16.30;11.73;;;-0.20;99.90;;;;;;5027152;28;20092;-75
2022/11/20 02:24:07;;;;;;;18.58;11.18;;;-0.20;99.90;;;;;;5027368;28;20050;-76
2022/11/20 02:26:51;;;;;;;17.70;12.35;;;-0.20;99.90;;;;;;5009178;28;20100;-74
2022/11/20 02:29:24;;;;;;;17.55;10.85;;;-0.20;99.90;;;;;;5017560;28;20385;-76
2022/11/20 02:31:51;;;;;;;15.95;11.05;;;-0.20;99.90;;;;;;5007454;28;20270;-76
2022/11/20 02:34:16;;;;;;;15.93;9.50;;;-0.20;99.90;;;;;;5007959;28;20433;-75
2022/11/20 02:36:44;;;;;;;16.27;11.23;;;-0.20;99.90;;;;;;5007019;28;20140;-75
2022/11/20 02:39:13;;;;;;;16.58;10.77;;;-0.20;99.90;;;;;;5004843;28;20076;-74
2022/11/20 02:41:39;;;;;;;18.10;12.45;;;-0.20;99.90;;;;;;5005549;28;20125;-75
2022/11/20 02:44:05;;;;;;;17.00;11.27;;;-0.20;99.90;;;;;;4995553;28;20116;-75
2022/11/20 02:46:32;;;;;;;21.50;12.68;;;-0.20;99.90;;;;;;5026812;28;20052;-74
2022/11/20 02:48:58;;;;;;;18.30;11.48;;;0.00;99.90;;;;;;5026856;28;20125;-75
2022/11/20 02:51:24;;;;;;;15.63;10.95;;;-0.10;99.90;;;;;;5009253;28;20080;-73
2022/11/20 02:53:50;;;;;;;14.05;9.45;;;-0.20;99.90;;;;;;5008201;28;20507;-76
2022/11/20 02:56:16;;;;;;;16.23;11.07;;;-0.20;99.90;;;;;;5007570;28;20061;-75
2022/11/20 02:58:41;;;;;;;16.50;11.40;;;-0.20;99.90;;;;;;5023797;28;20045;-77
2022/11/20 03:01:07;;;;;;;16.95;12.18;;;-0.20;99.90;;;;;;5006654;28;20042;-74
2022/11/20 03:03:33;;;;;;;15.98;10.80;;;-0.30;99.90;;;;;;5006012;28;20046;-76
2022/11/20 03:05:59;;;;;;;16.40;10.32;;;-0.30;99.90;;;;;;5006380;28;20232;-79
2022/11/20 03:08:26;;;;;;;14.80;9.75;;;-0.30;99.90;;;;;;5002260;28;20191;-75
2022/11/20 03:10:52;;;;;;;18.50;11.40;;;-0.30;99.90;;;;;;5007807;28;20558;-74
2022/11/20 03:13:17;;;;;;;17.90;9.18;;;-0.30;99.90;;;;;;5026121;28;20045;-77
2022/11/20 03:15:43;;;;;;;17.33;11.77;;;-0.30;99.90;;;;;;5007677;28;20056;-75
2022/11/20 03:18:09;;;;;;;14.60;10.43;;;-0.30;99.90;;;;;;5026418;28;20456;-76
2022/11/20 03:20:34;;;;;;;13.63;10.48;;;-0.30;99.90;;;;;;4992251;28;20073;-74
2022/11/20 03:23:01;;;;;;;13.77;9.88;;;-0.20;99.90;;;;;;5026325;28;20081;-77
2022/11/20 03:25:26;;;;;;;13.00;8.80;;;0.00;99.90;;;;;;5007575;28;20087;-75
2022/11/20 03:27:53;;;;;;;13.45;9.48;;;0.00;99.90;;;;;;5026586;28;20076;-75
2022/11/20 03:30:19;;;;;;;17.88;9.98;;;-0.10;99.90;;;;;;5025329;28;20382;-74
2022/11/20 03:32:45;;;;;;;11.95;9.48;;;0.00;99.90;;;;;;5026177;28;20063;-74
2022/11/20 03:35:10;;;;;;;14.20;10.00;;;0.00;99.90;;;;;;5026162;28;20052;-75
2022/11/20 03:37:36;;;;;;;14.68;9.27;;;0.10;99.90;;;;;;4991412;28;20378;-74
2022/11/20 03:40:02;;;;;;;11.93;9.13;;;0.10;99.90;;;;;;5025573;28;20467;-75
2022/11/20 03:42:46;;;;;;;13.43;7.05;;;0.10;99.90;;;;;;5026428;28;20049;-74
2022/11/20 03:45:18;;;;;;;11.43;7.82;;;0.10;99.90;;;;;;5025768;28;20445;-74
2022/11/20 03:47:45;;;;;;;12.98;9.13;;;0.20;99.90;;;;;;5006581;28;20042;-75
2022/11/20 03:50:13;;;;;;;12.20;8.07;;;0.20;99.90;;;;;;4989294;28;20056;-75
2022/11/20 03:52:39;;;;;;;13.43;8.70;;;0.20;99.90;;;;;;5006835;28;20053;-75
2022/11/20 03:55:06;;;;;;;12.27;7.13;;;0.30;99.90;;;;;;4988501;28;20057;-77
2022/11/20 03:57:32;;;;;;;11.65;8.25;;;0.30;99.90;;;;;;5006749;28;20512;-74
2022/11/20 03:59:58;;;;;;;12.02;8.23;;;0.30;99.90;;;;;;5007210;28;20135;-76
2022/11/20 04:02:23;;;;;;;11.68;8.20;;;0.30;99.90;;;;;;4988787;28;20386;-75
2022/11/20 04:04:49;;;;;;;12.68;7.28;;;0.30;99.90;;;;;;5007285;28;20042;-76
2022/11/20 04:07:15;;;;;;;10.38;7.78;;;0.20;99.90;;;;;;5006117;28;20034;-76
2022/11/20 04:09:41;;;;;;;10.73;6.75;;;0.30;99.90;;;;;;5008487;28;20049;-76
2022/11/20 04:12:06;;;;;;;11.70;8.52;;;0.30;99.90;;;;;;5008882;28;20060;-75
2022/11/20 04:14:32;;;;;;;16.38;9.18;;;0.30;99.90;;;;;;5012228;28;20037;-74
2022/11/20 04:16:58;;;;;;;13.50;8.55;;;0.30;99.90;;;;;;5030396;28;20049;-77
2022/11/20 04:19:23;;;;;;;13.60;8.00;;;0.30;99.90;;;;;;5029851;28;20045;-76
2022/11/20 04:21:49;;;;;;;11.13;8.10;;;0.30;99.90;;;;;;5016598;28;20854;-76
2022/11/20 04:24:15;;;;;;;11.57;8.52;;;0.20;99.90;;;;;;4993048;28;20046;-75
2022/11/20 04:26:40;;;;;;;12.27;8.05;;;0.10;99.90;;;;;;5008291;28;20038;-75
2022/11/20 04:29:09;;;;;;;13.98;7.93;;;0.20;99.90;;;;;;5010031;28;20504;-76
2022/11/20 04:31:35;;;;;;;11.63;7.88;;;0.20;99.90;;;;;;4992553;28;20449;-75
2022/11/20 04:34:04;;;;;;;10.55;7.55;;;0.20;99.90;;;;;;5010403;28;20048;-77
2022/11/20 04:36:30;;;;;;;13.38;7.93;;;0.20;99.90;;;;;;5010682;28;20143;-75
2022/11/20 04:39:01;;;;;;;10.73;7.50;;;0.20;99.90;;;;;;5009919;28;20038;-76
2022/11/20 04:41:30;;;;;;;11.65;8.57;;;0.20;99.90;;;;;;4992670;28;20078;-75
2022/11/20 04:44:04;;;;;;;10.32;7.13;;;0.10;99.90;;;;;;5014846;28;20513;-74
2022/11/20 04:46:32;;;;;;;13.18;7.60;;;0.10;99.90;;;;;;5014902;28;20046;-75
2022/11/20 04:48:59;;;;;;;12.57;7.53;;;0.10;99.90;;;;;;4997541;28;20115;-74
2022/11/20 04:51:25;;;;;;;11.50;7.93;;;0.20;99.90;;;;;;5015238;28;20042;-76
2022/11/20 04:53:50;;;;;;;13.43;8.73;;;0.10;99.90;;;;;;5009368;28;20048;-75
2022/11/20 04:56:16;;;;;;;12.35;8.43;;;0.10;99.90;;;;;;5009694;28;20044;-75
2022/11/20 04:58:42;;;;;;;11.02;7.18;;;0.10;99.90;;;;;;5008911;28;20042;-75
2022/11/20 05:01:17;;;;;;;9.25;6.38;;;0.10;99.90;;;;;;5008943;28;20042;-77
2022/11/20 05:03:43;;;;;;;12.13;8.00;;;0.10;99.90;;;;;;5009868;28;20045;-75
2022/11/20 05:06:12;;;;;;;13.35;7.70;;;0.10;99.90;;;;;;4991768;28;20121;-76
2022/11/20 05:08:38;;;;;;;12.50;8.90;;;0.10;99.90;;;;;;5007761;28;20485;-75
2022/11/20 05:11:06;;;;;;;11.63;7.38;;;0.20;99.90;;;;;;5008852;28;20397;-75
2022/11/20 05:13:32;;;;;;;11.70;8.80;;;0.20;99.90;;;;;;5008144;28;20129;-77
2022/11/20 05:16:07;;;;;;;11.57;8.25;;;0.20;99.90;;;;;;5008486;28;20196;-74
2022/11/20 05:18:34;;;;;;;13.32;9.98;;;0.30;99.90;;;;;;5008360;28;20046;-77
2022/11/20 05:21:00;;;;;;;11.75;7.35;;;0.20;99.90;;;;;;4991472;28;20049;-76
2022/11/20 05:23:26;;;;;;;13.77;7.80;;;0.20;99.90;;;;;;4990876;28;20041;-77
2022/11/20 05:25:56;;;;;;;12.25;8.10;;;0.20;99.90;;;;;;5007149;28;20046;-76
2022/11/20 05:28:22;;;;;;;12.43;8.73;;;0.20;99.90;;;;;;5008578;28;20056;-75
2022/11/20 05:30:49;;;;;;;12.10;8.55;;;0.10;99.90;;;;;;4991053;28;20121;-75
2022/11/20 05:33:15;;;;;;;11.90;7.82;;;0.10;99.90;;;;;;5016470;28;20046;-75
2022/11/20 05:35:41;;;;;;;15.82;9.73;;;0.10;99.90;;;;;;5028139;28;20136;-74
2022/11/20 05:38:07;;;;;;;13.02;8.75;;;0.10;99.90;;;;;;5028387;28;20049;-75
2022/11/20 05:40:33;;;;;;;14.32;9.52;;;0.20;99.90;;;;;;5027175;28;20496;-75
2022/11/20 05:43:00;;;;;;;12.60;8.23;;;0.20;99.90;;;;;;5028455;28;20064;-77
2022/11/20 05:45:25;;;;;;;12.95;9.02;;;0.30;99.90;;;;;;5027975;28;20045;-74
2022/11/20 05:47:51;;;;;;;10.65;8.38;;;0.30;99.90;;;;;;5028239;28;20111;-75
2022/11/20 05:50:17;;;;;;;14.45;10.05;;;0.30;99.90;;;;;;5010374;28;20461;-74
2022/11/20 05:52:42;;;;;;;14.57;9.13;;;0.30;99.90;;;;;;5028216;28;20059;-76
2022/11/20 05:55:09;;;;;;;12.48;8.85;;;0.30;99.90;;;;;;5026774;28;20037;-76
2022/11/20 05:57:35;;;;;;;12.60;8.95;;;0.30;99.90;;;;;;5027820;28;20094;-75
2022/11/20 06:00:01;;;;;;;13.45;9.00;;;0.30;99.90;;;;;;5027361;28;20056;-75
2022/11/20 06:02:26;;;;;;;12.13;9.10;;;0.40;99.90;;;;;;5027489;28;20389;-75
2022/11/20 06:04:52;;;;;;;14.50;8.93;;;0.40;99.90;;;;;;5010132;28;20041;-76
2022/11/20 06:07:18;;;;;;;11.93;7.85;;;0.30;99.90;;;;;;5027828;28;20053;-76
2022/11/20 06:09:43;;;;;;;14.27;9.30;;;0.30;99.90;;;;;;5026758;28;20057;-76
2022/11/20 06:12:09;;;;;;;11.32;8.60;;;0.30;99.90;;;;;;5028211;28;20053;-77
2022/11/20 06:14:35;;;;;;;13.55;9.57;;;0.40;99.90;;;;;;5027811;28;20098;-79
2022/11/20 06:17:01;;;;;;;13.40;9.20;;;0.40;99.90;;;;;;5028327;28;20066;-74
2022/11/20 06:19:26;;;;;;;13.52;8.10;;;0.40;99.90;;;;;;5027292;28;20049;-75
2022/11/20 06:21:52;;;;;;;14.32;9.70;;;0.30;99.90;;;;;;5027546;28;20046;-74
2022/11/20 06:24:18;;;;;;;14.20;10.23;;;0.30;99.90;;;;;;5026669;28;20051;-76
2022/11/20 06:26:44;;;;;;;11.82;9.65;;;0.30;99.90;;;;;;5027342;28;20135;-75
2022/11/20 06:29:10;;;;;;;19.38;10.82;;;0.30;99.90;;;;;;5026589;28;20077;-75
2022/11/20 06:31:37;;;;;;;12.15;8.02;;;0.20;99.90;;;;;;5007370;28;20046;-75
2022/11/20 06:34:06;;;;;;;11.85;8.13;;;0.30;99.90;;;;;;5007798;28;20046;-76
2022/11/20 06:36:32;;;;;;;14.57;9.63;;;0.30;99.90;;;;;;5007799;28;20314;-74
2022/11/20 06:38:59;;;;;;;15.82;10.32;;;0.30;99.90;;;;;;5006539;28;20041;-75
2022/11/20 06:41:25;;;;;;;11.63;8.50;;;0.30;99.90;;;;;;4989101;28;20129;-75
2022/11/20 06:43:51;;;;;;;13.27;9.63;;;0.30;99.90;;;;;;4989696;28;20144;-76
2022/11/20 06:46:19;;;;;;;11.80;8.52;;;0.20;99.90;;;;;;5006978;28;20033;-74
2022/11/20 06:48:45;;;;;;;11.88;9.27;;;0.20;99.90;;;;;;5006879;28;20127;-74
2022/11/20 06:51:12;;;;;;;14.18;9.23;;;0.20;99.90;;;;;;5006655;28;20049;-77
2022/11/20 06:53:38;;;;;;;14.95;9.05;;;0.10;99.90;;;;;;5005879;28;20255;-75
2022/11/20 06:56:04;;;;;;;17.33;10.15;;;0.20;99.90;;;;;;4989299;28;20076;-76
2022/11/20 06:58:32;;;;;;;14.80;9.45;;;0.10;99.90;;;;;;4993215;28;20041;-75
2022/11/20 07:01:02;;;;;;;14.50;9.35;;;0.10;99.90;;;;;;5025971;28;20139;-76
2022/11/20 07:03:28;;;;;;;15.73;9.77;;;0.00;99.90;;;;;;5008102;28;20052;-75
2022/11/20 07:05:59;;;;;;;14.45;10.63;;;0.00;99.90;;;;;;5025931;28;20041;-77
2022/11/20 07:08:25;;;;;;;11.77;8.73;;;0.00;99.90;;;;;;5007465;28;20050;-75
2022/11/20 07:10:51;;;;;;;14.15;9.48;;;-0.10;99.90;;;;;;5026865;28;20092;-75
2022/11/20 07:13:16;;;;;;;16.25;8.93;;;0.00;99.90;;;;;;5009502;28;20041;-75
2022/11/20 07:15:42;;;;;;;16.10;10.10;;;0.00;99.90;;;;;;5026645;28;20041;-76
2022/11/20 07:18:08;;;;;;;13.60;9.15;;;0.00;99.90;;;;;;5026789;28;20044;-75
2022/11/20 07:20:34;;;;;;;16.08;10.27;;;0.00;99.90;;;;;;5026854;28;20030;-74
2022/11/20 07:23:00;;;;;;;15.52;10.52;;;0.00;99.90;;;;;;5026523;28;20088;-76
2022/11/20 07:25:27;;;;;;;17.60;10.40;;;-0.10;99.90;;;;;;5025443;28;20051;-76
2022/11/20 07:27:53;;;;;;;16.30;10.20;;;-0.10;99.90;;;;;;5024464;28;20052;-75
2022/11/20 07:30:18;;;;;;;15.90;10.50;;;-0.10;99.90;;;;;;5007154;28;20033;-75
2022/11/20 07:32:51;;;;;;;14.40;10.07;;;-0.10;99.90;;;;;;5006870;28;20381;-73
2022/11/20 07:35:16;;;;;;;15.38;10.90;;;0.00;99.90;;;;;;5007535;28;20053;-75
2022/11/20 07:37:42;;;;;;;14.30;10.55;;;-0.10;99.90;;;;;;5006749;28;20046;-76
2022/11/20 07:40:08;;;;;;;16.08;9.75;;;0.00;99.90;;;;;;5007814;28;20073;-76
2022/11/20 07:42:34;;;;;;;14.60;9.65;;;0.00;99.90;;;;;;4993093;28;20050;-75
2022/11/20 07:45:00;;;;;;;18.00;12.43;;;0.00;99.90;;;;;;5010754;28;20065;-77
2022/11/20 07:47:26;;;;;;;14.48;10.48;;;0.00;99.90;;;;;;5010657;28;20041;-76
2022/11/20 07:49:51;;;;;;;17.75;10.38;;;0.10;99.90;;;;;;4993517;28;20556;-75
2022/11/20 07:52:17;;;;;;;18.38;9.32;;;0.10;99.90;;;;;;5010854;28;20401;-76
2022/11/20 07:54:42;;;;;;;14.13;10.20;;;0.20;99.90;;;;;;5009891;28;20701;-76
2022/11/20 07:57:08;;;;;;;13.45;9.68;;;0.20;99.90;;;;;;5011204;28;20054;-75
2022/11/20 07:59:34;;;;;;;13.25;8.60;;;0.20;99.90;;;;;;5010133;28;20046;-75
2022/11/20 08:01:59;;;;;;;14.20;9.23;;;0.20;99.90;;;;;;5009916;28;20128;-79
2022/11/20 08:04:25;;;;;;;14.32;9.20;;;0.20;99.90;;;;;;5010135;28;20607;-76
2022/11/20 08:06:52;;;;;;;14.13;10.07;;;0.20;99.90;;;;;;5010409;28;20042;-75
2022/11/20 08:09:18;;;;;;;15.60;9.80;;;0.20;99.90;;;;;;4987914;28;20061;-77
2022/11/20 08:14:28;;;;;;;14.43;9.48;;;0.30;99.90;;;;;;4991112;28;20069;-74
2022/11/20 08:16:54;;;;;;;14.27;10.40;;;0.20;99.90;;;;;;4991166;28;20092;-75
2022/11/20 08:19:20;;;;;;;13.35;10.65;;;0.20;99.90;;;;;;4991411;28;20030;-75
2022/11/20 08:21:46;;;;;;;14.38;10.10;;;0.10;99.90;;;;;;4991388;28;20047;-74
2022/11/20 08:24:12;;;;;;;15.88;10.30;;;0.20;99.90;;;;;;4990378;28;20034;-77
2022/11/20 08:26:39;;;;;;;12.93;9.32;;;0.20;99.90;;;;;;4991338;28;20057;-75
2022/11/20 08:29:05;;;;;;;14.52;10.07;;;0.20;99.90;;;;;;4970645;28;20421;-75
2022/11/20 08:31:32;;;;;;;12.73;9.57;;;0.30;99.90;;;;;;4986622;28;20046;-76
2022/11/20 08:33:58;;;;;;;13.15;8.77;;;0.30;99.90;;;;;;4971903;28;20046;-76
2022/11/20 08:36:24;;;;;;;14.82;10.35;;;0.30;99.90;;;;;;4970252;28;20105;-75
2022/11/20 08:38:53;;;;;;;15.10;9.82;;;0.30;99.90;;;;;;4971057;28;20042;-74
2022/11/20 08:41:28;;;;;;;12.77;9.88;;;0.40;99.90;;;;;;4971826;28;20116;-75
2022/11/20 08:43:56;;;;;;;15.25;10.88;;;0.50;99.90;;;;;;4971716;28;20043;-75
2022/11/20 08:46:26;;;;;;;14.50;10.63;;;0.50;99.90;;;;;;4986462;28;20046;-77
2022/11/20 08:48:52;;;;;;;13.10;9.02;;;0.60;99.90;;;;;;4972149;28;20113;-75
2022/11/20 08:51:19;;;;;;;14.60;9.57;;;0.60;99.90;;;;;;4971155;28;20062;-75
2022/11/20 08:53:45;;;;;;;15.93;8.80;;;0.60;99.90;;;;;;4970619;28;20066;-76
2022/11/20 08:56:11;;;;;;;12.77;8.60;;;0.60;99.90;;;;;;4971985;28;20392;-77
2022/11/20 08:58:38;;;;;;;11.10;8.35;;;0.70;99.90;;;;;;4980092;28;20073;-76
2022/11/20 09:01:04;;;;;;;12.07;8.45;;;0.70;99.90;;;;;;5005194;28;20123;-75
2022/11/20 09:03:29;;;;;;;15.85;10.48;;;0.70;99.90;;;;;;5008545;28;20093;-76
2022/11/20 09:06:00;;;;;;;15.50;9.02;;;0.70;99.90;;;;;;5010496;28;20046;-75
2022/11/20 09:08:26;;;;;;;13.70;10.35;;;0.80;99.90;;;;;;5013799;28;20393;-76
2022/11/20 09:10:52;;;;;;;12.45;9.23;;;0.80;99.90;;;;;;5012353;28;20409;-76
2022/11/20 09:13:19;;;;;;;15.43;11.13;;;0.80;99.90;;;;;;5030098;28;20045;-76
2022/11/20 09:15:44;;;;;;;14.55;9.40;;;0.80;99.90;;;;;;5030449;28;20042;-77
2022/11/20 09:18:10;;;;;;;17.05;10.30;;;0.60;99.90;;;;;;4996053;28;20138;-77
2022/11/20 09:20:36;;;;;;;16.85;10.52;;;0.70;99.90;;;;;;5029586;28;20069;-75
2022/11/20 09:23:02;;;;;;;14.18;9.02;;;0.70;99.90;;;;;;5029121;28;20107;-74
2022/11/20 09:25:28;;;;;;;11.68;8.52;;;0.60;99.90;;;;;;5029164;28;20049;-74
2022/11/20 09:28:00;;;;;;;15.88;10.18;;;0.60;99.90;;;;;;5029161;28;20381;-76
2022/11/20 09:30:27;;;;;;;12.70;8.80;;;0.60;99.90;;;;;;5022438;28;20097;-76
2022/11/20 09:32:53;;;;;;;13.38;9.35;;;0.70;99.90;;;;;;5013446;28;20034;-76
2022/11/20 09:35:18;;;;;;;11.75;8.38;;;0.90;99.90;;;;;;5012922;28;20400;-76
2022/11/20 09:37:44;;;;;;;15.07;9.35;;;0.80;99.90;;;;;;5012610;28;20133;-75
2022/11/20 09:40:24;;;;;;;13.88;8.65;;;0.80;99.90;;;;;;5008408;28;20045;-76
2022/11/20 09:43:16;;;;;;;12.32;9.25;;;0.80;99.90;;;;;;5009823;28;20042;-75
2022/11/20 09:46:12;;;;;;;13.50;9.95;;;1.00;99.90;;;;;;5009723;28;20052;-76
2022/11/20 09:49:17;;;;;;;11.90;8.50;;;1.00;99.90;;;;;;5009594;28;20058;-75
2022/11/20 09:52:13;;;;;;;10.52;8.80;;;0.90;99.90;;;;;;5009856;28;20042;-76
2022/11/20 09:54:41;;;;;;;14.20;8.27;;;0.90;99.90;;;;;;5007909;28;20095;-75
2022/11/20 09:57:18;;;;;;;14.73;8.75;;;1.00;99.90;;;;;;5009081;28;20041;-75
2022/11/20 09:59:50;;;;;;;15.40;8.55;;;1.20;99.90;;;;;;5010212;28;20049;-75
2022/11/20 10:02:29;;;;;;;13.82;9.35;;;1.30;99.90;;;;;;5009459;28;20103;-76
2022/11/20 10:05:19;;;;;;;13.95;9.00;;;1.40;99.90;;;;;;5009881;28;20049;-74
2022/11/20 10:07:55;;;;;;;14.95;10.98;;;1.20;99.90;;;;;;5009072;28;20124;-75
2022/11/20 10:10:44;;;;;;;15.95;9.32;;;1.40;99.90;;;;;;5009222;28;20049;-74
2022/11/20 10:13:21;;;;;;;13.85;9.45;;;1.20;99.90;;;;;;5009328;28;20074;-74
2022/11/20 10:16:10;;;;;;;14.35;9.68;;;1.30;99.90;;;;;;5009735;28;20130;-74
2022/11/20 10:19:02;;;;;;;17.50;8.57;;;1.40;99.90;;;;;;5008885;28;20081;-74
2022/11/20 10:21:42;;;;;;;14.32;8.32;;;1.40;99.90;;;;;;5007590;28;20065;-75
2022/11/20 10:24:34;;;;;;;15.65;9.48;;;1.40;99.90;;;;;;5006813;28;20115;-74
2022/11/20 10:27:15;;;;;;;13.43;8.80;;;1.70;99.90;;;;;;5008981;28;20041;-74
2022/11/20 10:29:45;;;;;;;13.35;9.52;;;1.80;99.90;;;;;;5027536;28;20045;-76
2022/11/20 10:32:17;;;;;;;13.65;9.65;;;2.00;99.90;;;;;;5027800;28;20048;-76
2022/11/20 10:34:52;;;;;;;13.38;8.95;;;2.00;99.90;;;;;;5028292;28;20041;-75
2022/11/20 10:37:30;;;;;;;12.55;8.90;;;1.90;99.90;;;;;;5009873;28;20046;-76
2022/11/20 10:40:17;;;;;;;12.93;9.23;;;1.90;99.90;;;;;;5030986;28;20502;-75
2022/11/20 10:42:46;;;;;;;13.88;9.55;;;2.10;99.90;;;;;;5013761;28;20068;-76
2022/11/20 10:45:24;;;;;;;12.75;8.75;;;2.00;99.90;;;;;;5032378;28;20045;-76
2022/11/20 10:47:54;;;;;;;12.68;8.68;;;2.20;99.90;;;;;;5032043;28;20057;-75
2022/11/20 10:50:21;;;;;;;14.57;9.00;;;2.20;99.90;;;;;;5027091;28;20176;-75
2022/11/20 10:53:16;;;;;;;16.88;10.15;;;2.10;99.90;;;;;;5026764;28;20404;-74
2022/11/20 10:55:53;;;;;;;13.45;8.13;;;2.10;99.90;;;;;;5026892;28;20085;-75
2022/11/20 10:58:26;;;;;;;12.68;8.82;;;2.20;99.90;;;;;;5026395;28;20096;-76
2022/11/20 11:00:52;;;;;;;14.05;9.43;;;2.30;99.90;;;;;;5027435;28;20095;-76
2022/11/20 11:03:27;;;;;;;11.60;8.10;;;2.50;99.90;;;;;;5010415;28;20045;-78
2022/11/20 11:06:08;;;;;;;10.30;7.25;;;2.70;99.90;;;;;;5027860;28;20038;-74
2022/11/20 11:08:40;;;;;;;13.82;7.78;;;2.70;99.90;;;;;;5026015;28;20057;-76
2022/11/20 11:11:29;;;;;;;9.88;7.03;;;2.80;99.90;;;;;;5027436;28;20452;-75
2022/11/20 11:14:09;;;;;;;10.80;5.60;;;2.90;99.90;;;;;;5027464;28;20099;-76
2022/11/20 11:16:35;;;;;;;5.75;4.65;;;2.90;99.90;;;;;;5030803;28;20531;-74
2022/11/20 11:19:14;;;;;;;10.48;5.93;;;3.00;99.90;;;;;;5031361;28;20451;-75
2022/11/20 11:21:51;;;;;;;7.10;6.15;;;2.70;99.90;;;;;;5030945;28;20064;-77
2022/11/20 11:24:30;;;;;;;10.23;6.43;;;2.80;99.90;;;;;;5030483;28;20124;-74
2022/11/20 11:26:57;;;;;;;8.18;5.97;;;2.90;99.90;;;;;;5011751;28;20045;-77
2022/11/20 11:29:26;;;;;;;8.75;6.05;;;3.00;99.90;;;;;;5011021;28;20046;-77
2022/11/20 11:32:06;;;;;;;7.13;5.47;;;3.00;99.90;;;;;;5011798;28;20046;-77
2022/11/20 11:34:32;;;;;;;8.48;6.10;;;3.00;99.90;;;;;;5010062;28;20505;-76
2022/11/20 11:36:59;;;;;;;9.57;4.97;;;3.00;99.90;;;;;;4993112;28;20048;-77
2022/11/20 11:39:28;;;;;;;8.25;6.40;;;3.10;99.90;;;;;;4975513;28;20042;-75
2022/11/20 11:41:54;;;;;;;7.53;6.30;;;3.10;99.90;;;;;;5010533;28;20451;-76
2022/11/20 11:47:23;;;;;;;7.40;4.95;;;3.20;99.90;;;;;;5030782;28;20140;-75
2022/11/20 11:49:48;;;;;;;5.95;4.60;;;3.10;99.90;;;;;;5030378;28;20045;-75
2022/11/20 11:52:22;;;;;;;10.23;6.47;;;3.20;99.90;;;;;;5031071;28;20565;-76
2022/11/20 11:54:56;;;;;;;7.18;5.30;;;3.20;99.90;;;;;;5029417;28;20071;-76
2022/11/20 11:57:36;;;;;;;8.93;5.13;;;3.20;99.90;;;;;;5029987;28;20065;-76
2022/11/20 12:00:28;;;;;;;7.38;5.03;;;3.20;99.90;;;;;;5030571;28;20076;-75
2022/11/20 12:03:07;;;;;;;6.10;3.90;;;3.10;99.90;;;;;;5026050;28;20057;-76
2022/11/20 12:05:48;;;;;;;5.95;4.53;;;3.10;99.90;;;;;;5030116;28;20068;-74
2022/11/20 12:08:36;;;;;;;6.47;5.32;;;3.10;99.90;;;;;;5011750;28;20076;-75
2022/11/20 12:11:22;;;;;;;9.80;6.30;;;3.10;99.90;;;;;;5013700;28;20057;-76
2022/11/20 12:14:04;;;;;;;6.95;5.70;;;3.20;99.90;;;;;;5030372;28;20073;-78
2022/11/20 12:16:34;;;;;;;8.30;5.82;;;3.20;99.90;;;;;;5031042;28;20116;-76
2022/11/20 12:19:00;;;;;;;7.68;4.95;;;3.10;99.90;;;;;;5012429;28;20365;-75
2022/11/20 12:21:52;;;;;;;6.13;4.95;;;3.10;99.90;;;;;;5029223;28;20127;-77
2022/11/20 12:24:46;;;;;;;6.32;4.35;;;3.10;99.90;;;;;;5028602;28;20037;-78
2022/11/20 12:27:33;;;;;;;7.75;4.45;;;3.10;99.90;;;;;;5029494;28;20045;-75
2022/11/20 12:30:10;;;;;;;6.55;4.82;;;3.10;99.90;;;;;;5029756;28;20065;-74
2022/11/20 12:32:57;;;;;;;7.78;5.90;;;3.10;99.90;;;;;;5011374;28;20049;-76
2022/11/20 12:35:44;;;;;;;8.18;5.18;;;3.20;99.90;;;;;;5029236;28;20045;-77
2022/11/20 12:38:45;;;;;;;11.63;5.13;;;3.30;99.90;;;;;;5029125;28;20042;-75
2022/11/20 12:45:09;;;;;;;7.05;4.05;;;3.40;99.90;;;;;;5017417;28;20064;-75
2022/11/20 12:47:53;;;;;;;11.20;5.15;;;3.40;99.90;;;;;;4989690;28;20547;-76
2022/11/20 12:50:55;;;;;;;8.35;5.38;;;3.30;99.90;;;;;;4989838;28;20405;-77
2022/11/20 12:53:41;;;;;;;7.88;4.75;;;3.30;99.90;;;;;;4988823;28;20049;-76
2022/11/20 12:56:46;;;;;;;7.32;5.32;;;3.20;99.90;;;;;;4990461;28;20098;-78
2022/11/20 12:59:46;;;;;;;7.40;5.43;;;3.10;99.90;;;;;;4990087;28;20078;-76
2022/11/20 13:02:34;;;;;;;8.65;4.35;;;3.10;99.90;;;;;;4989630;28;20057;-76
2022/11/20 13:05:17;;;;;;;6.18;4.85;;;3.10;99.90;;;;;;4972632;28;20046;-76